sensor_id;sensor_type;location;lat;lon;timestamp;temperature;humidity
59303;DHT22;45074;52.764;6.896;2022-10-19T00:00:26;10.30;99.90
59303;DHT22;45074;52.764;6.896;2022-10-19T00:02:52;9.80;99.90
59303;DHT22;45074;52.764;6.896;2022-10-19T00:05:18;10.30;99.90
59303;DHT22;45074;52.764;6.896;2022-10-19T00:07:43;10.30;99.90
59303;DHT22;45074;52.764;6.896;2022-10-19T00:10:09;10.20;99.90
59303;DHT22;45074;52.764;6.896;2022-10-19T00:15:02;9.50;99.90
59303;DHT22;45074;52.764;6.896;2022-10-19T00:17:28;9.90;99.90
59303;DHT22;45074;52.764;6.896;2022-10-19T00:19:53;9.90;99.90
59303;DHT22;45074;52.764;6.896;2022-10-19T00:22:19;8.80;99.90
59303;DHT22;45074;52.764;6.896;2022-10-19T00:24:44;8.70;99.90
59303;DHT22;45074;52.764;6.896;2022-10-19T00:27:10;11.00;99.90
59303;DHT22;45074;52.764;6.896;2022-10-19T00:29:36;9.80;99.90
59303;DHT22;45074;52.764;6.896;2022-10-19T00:34:28;9.70;99.90
59303;DHT22;45074;52.764;6.896;2022-10-19T00:36:54;9.70;99.90
59303;DHT22;45074;52.764;6.896;2022-10-19T00:39:19;10.10;99.90
59303;DHT22;45074;52.764;6.896;2022-10-19T00:41:46;9.20;99.90
59303;DHT22;45074;52.764;6.896;2022-10-19T00:46:39;9.00;99.90
59303;DHT22;45074;52.764;6.896;2022-10-19T00:49:10;8.40;99.90
59303;DHT22;45074;52.764;6.896;2022-10-19T00:51:40;9.50;99.90
59303;DHT22;45074;52.764;6.896;2022-10-19T00:54:07;9.20;99.90
59303;DHT22;45074;52.764;6.896;2022-10-19T00:56:34;9.30;99.90
59303;DHT22;45074;52.764;6.896;2022-10-19T00:59:03;9.40;99.90
59303;DHT22;45074;52.764;6.896;2022-10-19T01:01:30;9.30;99.90
59303;DHT22;45074;52.764;6.896;2022-10-19T01:06:22;9.30;99.90
59303;DHT22;45074;52.764;6.896;2022-10-19T01:08:49;9.20;99.90
59303;DHT22;45074;52.764;6.896;2022-10-19T01:11:38;8.90;99.90
59303;DHT22;45074;52.764;6.896;2022-10-19T01:20:04;9.50;99.90
59303;DHT22;45074;52.764;6.896;2022-10-19T01:42:01;9.40;99.90
59303;DHT22;45074;52.764;6.896;2022-10-19T01:44:44;9.60;99.90
59303;DHT22;45074;52.764;6.896;2022-10-19T01:47:17;9.70;99.90
59303;DHT22;45074;52.764;6.896;2022-10-19T01:49:56;9.60;99.90
59303;DHT22;45074;52.764;6.896;2022-10-19T01:52:24;9.70;99.90
59303;DHT22;45074;52.764;6.896;2022-10-19T01:54:55;9.60;99.90
59303;DHT22;45074;52.764;6.896;2022-10-19T01:57:35;9.10;99.90
59303;DHT22;45074;52.764;6.896;2022-10-19T02:00:03;9.70;99.90
59303;DHT22;45074;52.764;6.896;2022-10-19T02:02:34;9.60;99.90
59303;DHT22;45074;52.764;6.896;2022-10-19T02:05:02;9.90;99.90
59303;DHT22;45074;52.764;6.896;2022-10-19T02:07:28;8.50;99.90
59303;DHT22;45074;52.764;6.896;2022-10-19T02:09:55;9.80;99.90
59303;DHT22;45074;52.764;6.896;2022-10-19T02:12:21;9.60;99.90
59303;DHT22;45074;52.764;6.896;2022-10-19T02:14:52;9.50;99.90
59303;DHT22;45074;52.764;6.896;2022-10-19T02:17:29;9.80;99.90
59303;DHT22;45074;52.764;6.896;2022-10-19T02:19:56;12.00;99.90
59303;DHT22;45074;52.764;6.896;2022-10-19T02:22:22;9.60;99.90
59303;DHT22;45074;52.764;6.896;2022-10-19T02:24:48;9.80;99.90
59303;DHT22;45074;52.764;6.896;2022-10-19T02:27:14;9.90;99.90
59303;DHT22;45074;52.764;6.896;2022-10-19T02:29:40;9.90;99.90
59303;DHT22;45074;52.764;6.896;2022-10-19T02:32:08;9.90;99.90
59303;DHT22;45074;52.764;6.896;2022-10-19T02:34:34;10.40;99.90
59303;DHT22;45074;52.764;6.896;2022-10-19T02:39:27;10.60;99.90
59303;DHT22;45074;52.764;6.896;2022-10-19T02:42:10;10.10;99.90
59303;DHT22;45074;52.764;6.896;2022-10-19T02:47:10;9.30;99.90
59303;DHT22;45074;52.764;6.896;2022-10-19T02:49:37;10.10;99.90
59303;DHT22;45074;52.764;6.896;2022-10-19T02:52:06;10.10;99.90
59303;DHT22;45074;52.764;6.896;2022-10-19T02:54:32;9.80;99.90
59303;DHT22;45074;52.764;6.896;2022-10-19T02:56:57;10.00;99.90
59303;DHT22;45074;52.764;6.896;2022-10-19T02:59:24;9.60;99.90
59303;DHT22;45074;52.764;6.896;2022-10-19T03:01:50;10.00;99.90
59303;DHT22;45074;52.764;6.896;2022-10-19T03:04:16;10.20;99.90
59303;DHT22;45074;52.764;6.896;2022-10-19T03:06:42;10.30;99.90
59303;DHT22;45074;52.764;6.896;2022-10-19T03:09:08;10.00;99.90
59303;DHT22;45074;52.764;6.896;2022-10-19T03:11:34;10.20;99.90
59303;DHT22;45074;52.764;6.896;2022-10-19T03:16:25;10.10;99.90
59303;DHT22;45074;52.764;6.896;2022-10-19T03:18:51;10.20;99.90
59303;DHT22;45074;52.764;6.896;2022-10-19T03:21:17;10.10;99.90
59303;DHT22;45074;52.764;6.896;2022-10-19T03:23:43;9.30;99.90
59303;DHT22;45074;52.764;6.896;2022-10-19T03:26:12;10.00;99.90
59303;DHT22;45074;52.764;6.896;2022-10-19T03:28:38;9.20;99.90
59303;DHT22;45074;52.764;6.896;2022-10-19T03:31:04;10.00;99.90
59303;DHT22;45074;52.764;6.896;2022-10-19T03:33:30;10.30;99.90
59303;DHT22;45074;52.764;6.896;2022-10-19T03:36:24;8.70;99.90
59303;DHT22;45074;52.764;6.896;2022-10-19T03:38:52;8.90;99.90
59303;DHT22;45074;52.764;6.896;2022-10-19T03:41:19;10.30;99.90
59303;DHT22;45074;52.764;6.896;2022-10-19T03:43:45;10.20;99.90
59303;DHT22;45074;52.764;6.896;2022-10-19T03:46:10;9.80;99.90
59303;DHT22;45074;52.764;6.896;2022-10-19T03:48:36;10.10;99.90
59303;DHT22;45074;52.764;6.896;2022-10-19T03:51:11;9.70;99.90
59303;DHT22;45074;52.764;6.896;2022-10-19T03:58:34;9.20;99.90
59303;DHT22;45074;52.764;6.896;2022-10-19T04:01:00;9.60;99.90
59303;DHT22;45074;52.764;6.896;2022-10-19T04:03:26;9.50;99.90
59303;DHT22;45074;52.764;6.896;2022-10-19T04:05:52;9.70;99.90
59303;DHT22;45074;52.764;6.896;2022-10-19T04:13:17;10.40;99.90
59303;DHT22;45074;52.764;6.896;2022-10-19T04:18:08;9.70;99.90
59303;DHT22;45074;52.764;6.896;2022-10-19T04:20:34;9.50;99.90
59303;DHT22;45074;52.764;6.896;2022-10-19T04:23:00;9.60;99.90
59303;DHT22;45074;52.764;6.896;2022-10-19T04:25:25;9.50;99.90
59303;DHT22;45074;52.764;6.896;2022-10-19T04:27:51;9.20;99.90
59303;DHT22;45074;52.764;6.896;2022-10-19T04:30:16;9.50;99.90
59303;DHT22;45074;52.764;6.896;2022-10-19T04:32:42;9.60;99.90
59303;DHT22;45074;52.764;6.896;2022-10-19T04:35:08;8.90;99.90
59303;DHT22;45074;52.764;6.896;2022-10-19T04:37:33;9.50;99.90
59303;DHT22;45074;52.764;6.896;2022-10-19T04:42:25;9.50;99.90
59303;DHT22;45074;52.764;6.896;2022-10-19T04:44:51;9.70;99.90
59303;DHT22;45074;52.764;6.896;2022-10-19T04:47:16;9.60;99.90
59303;DHT22;45074;52.764;6.896;2022-10-19T04:49:42;10.10;99.90
59303;DHT22;45074;52.764;6.896;2022-10-19T04:52:07;9.60;99.90
59303;DHT22;45074;52.764;6.896;2022-10-19T04:54:33;11.30;99.90
59303;DHT22;45074;52.764;6.896;2022-10-19T04:59:25;9.60;99.90
59303;DHT22;45074;52.764;6.896;2022-10-19T05:01:50;9.80;99.90
59303;DHT22;45074;52.764;6.896;2022-10-19T05:04:16;11.60;99.90
59303;DHT22;45074;52.764;6.896;2022-10-19T05:06:41;9.80;99.90
59303;DHT22;45074;52.764;6.896;2022-10-19T05:09:07;9.60;99.90
59303;DHT22;45074;52.764;6.896;2022-10-19T05:11:33;8.60;99.90
59303;DHT22;45074;52.764;6.896;2022-10-19T05:13:58;10.10;99.90
59303;DHT22;45074;52.764;6.896;2022-10-19T05:16:24;10.50;99.90
59303;DHT22;45074;52.764;6.896;2022-10-19T05:18:52;9.00;99.90
59303;DHT22;45074;52.764;6.896;2022-10-19T05:21:20;9.80;99.90
59303;DHT22;45074;52.764;6.896;2022-10-19T05:23:46;11.20;99.90
59303;DHT22;45074;52.764;6.896;2022-10-19T05:26:16;9.60;99.90
59303;DHT22;45074;52.764;6.896;2022-10-19T05:28:46;9.60;99.90
59303;DHT22;45074;52.764;6.896;2022-10-19T05:31:15;9.00;99.90
59303;DHT22;45074;52.764;6.896;2022-10-19T05:33:41;9.60;99.90
59303;DHT22;45074;52.764;6.896;2022-10-19T05:36:23;9.50;99.90
59303;DHT22;45074;52.764;6.896;2022-10-19T05:38:56;9.60;99.90
59303;DHT22;45074;52.764;6.896;2022-10-19T05:41:22;9.50;99.90
59303;DHT22;45074;52.764;6.896;2022-10-19T05:43:53;10.10;99.90
59303;DHT22;45074;52.764;6.896;2022-10-19T05:46:19;9.40;99.90
59303;DHT22;45074;52.764;6.896;2022-10-19T05:48:45;9.40;99.90
59303;DHT22;45074;52.764;6.896;2022-10-19T05:51:13;9.40;99.90
59303;DHT22;45074;52.764;6.896;2022-10-19T05:53:40;9.60;99.90
59303;DHT22;45074;52.764;6.896;2022-10-19T05:56:08;9.30;99.90
59303;DHT22;45074;52.764;6.896;2022-10-19T05:58:36;10.80;99.90
59303;DHT22;45074;52.764;6.896;2022-10-19T06:01:02;8.60;99.90
59303;DHT22;45074;52.764;6.896;2022-10-19T06:03:29;7.90;99.90
59303;DHT22;45074;52.764;6.896;2022-10-19T06:05:55;9.20;99.90
59303;DHT22;45074;52.764;6.896;2022-10-19T06:08:22;9.60;99.90
59303;DHT22;45074;52.764;6.896;2022-10-19T06:10:48;9.30;99.90
59303;DHT22;45074;52.764;6.896;2022-10-19T06:13:17;9.90;99.90
59303;DHT22;45074;52.764;6.896;2022-10-19T06:15:43;9.60;99.90
59303;DHT22;45074;52.764;6.896;2022-10-19T06:18:10;8.80;99.90
59303;DHT22;45074;52.764;6.896;2022-10-19T06:20:38;11.10;99.90
59303;DHT22;45074;52.764;6.896;2022-10-19T06:23:05;9.00;99.90
59303;DHT22;45074;52.764;6.896;2022-10-19T06:25:32;9.90;99.90
59303;DHT22;45074;52.764;6.896;2022-10-19T06:27:58;9.80;99.90
59303;DHT22;45074;52.764;6.896;2022-10-19T06:30:24;8.90;99.90
59303;DHT22;45074;52.764;6.896;2022-10-19T06:32:50;9.60;99.90
59303;DHT22;45074;52.764;6.896;2022-10-19T06:35:16;9.70;99.90
59303;DHT22;45074;52.764;6.896;2022-10-19T06:37:42;9.70;99.90
59303;DHT22;45074;52.764;6.896;2022-10-19T06:40:09;9.60;99.90
59303;DHT22;45074;52.764;6.896;2022-10-19T06:42:34;9.40;99.90
59303;DHT22;45074;52.764;6.896;2022-10-19T06:45:08;9.90;99.90
59303;DHT22;45074;52.764;6.896;2022-10-19T06:47:35;9.60;99.90
59303;DHT22;45074;52.764;6.896;2022-10-19T06:50:01;9.80;99.90
59303;DHT22;45074;52.764;6.896;2022-10-19T06:52:27;10.50;99.90
59303;DHT22;45074;52.764;6.896;2022-10-19T06:54:52;9.90;99.90
59303;DHT22;45074;52.764;6.896;2022-10-19T06:57:18;9.00;99.90
59303;DHT22;45074;52.764;6.896;2022-10-19T06:59:44;10.10;99.90
59303;DHT22;45074;52.764;6.896;2022-10-19T07:02:10;8.80;99.90
59303;DHT22;45074;52.764;6.896;2022-10-19T07:04:36;9.50;99.90
59303;DHT22;45074;52.764;6.896;2022-10-19T07:07:02;8.40;99.90
59303;DHT22;45074;52.764;6.896;2022-10-19T07:09:28;10.00;99.90
59303;DHT22;45074;52.764;6.896;2022-10-19T07:11:54;10.10;99.90
59303;DHT22;45074;52.764;6.896;2022-10-19T07:14:19;9.90;99.90
59303;DHT22;45074;52.764;6.896;2022-10-19T07:16:45;10.10;99.90
59303;DHT22;45074;52.764;6.896;2022-10-19T07:19:11;10.00;99.90
59303;DHT22;45074;52.764;6.896;2022-10-19T07:24:07;10.50;99.90
59303;DHT22;45074;52.764;6.896;2022-10-19T07:26:33;10.10;99.90
59303;DHT22;45074;52.764;6.896;2022-10-19T07:28:59;10.90;99.90
59303;DHT22;45074;52.764;6.896;2022-10-19T07:31:26;9.30;99.90
59303;DHT22;45074;52.764;6.896;2022-10-19T07:33:54;10.40;99.90
59303;DHT22;45074;52.764;6.896;2022-10-19T07:38:46;9.90;99.90
59303;DHT22;45074;52.764;6.896;2022-10-19T07:41:14;10.60;99.90
59303;DHT22;45074;52.764;6.896;2022-10-19T07:43:41;11.20;99.90
59303;DHT22;45074;52.764;6.896;2022-10-19T07:46:11;9.60;99.90
59303;DHT22;45074;52.764;6.896;2022-10-19T07:48:37;11.30;99.90
59303;DHT22;45074;52.764;6.896;2022-10-19T07:51:06;10.80;99.90
59303;DHT22;45074;52.764;6.896;2022-10-19T07:53:33;11.20;99.90
59303;DHT22;45074;52.764;6.896;2022-10-19T07:58:35;10.70;99.90
59303;DHT22;45074;52.764;6.896;2022-10-19T08:01:13;11.50;99.90
59303;DHT22;45074;52.764;6.896;2022-10-19T08:03:39;9.80;99.90
59303;DHT22;45074;52.764;6.896;2022-10-19T08:06:08;10.10;99.90
59303;DHT22;45074;52.764;6.896;2022-10-19T08:08:35;11.00;99.90
59303;DHT22;45074;52.764;6.896;2022-10-19T08:11:15;11.80;99.90
59303;DHT22;45074;52.764;6.896;2022-10-19T08:13:41;11.60;99.90
59303;DHT22;45074;52.764;6.896;2022-10-19T08:16:21;11.30;99.90
59303;DHT22;45074;52.764;6.896;2022-10-19T08:18:47;11.40;99.90
59303;DHT22;45074;52.764;6.896;2022-10-19T08:21:14;12.60;99.90
59303;DHT22;45074;52.764;6.896;2022-10-19T08:23:40;11.70;99.90
59303;DHT22;45074;52.764;6.896;2022-10-19T08:26:05;10.60;99.90
59303;DHT22;45074;52.764;6.896;2022-10-19T08:28:31;10.40;99.90
59303;DHT22;45074;52.764;6.896;2022-10-19T08:30:57;11.90;99.90
59303;DHT22;45074;52.764;6.896;2022-10-19T08:33:24;11.90;99.90
59303;DHT22;45074;52.764;6.896;2022-10-19T08:35:50;12.00;99.90
59303;DHT22;45074;52.764;6.896;2022-10-19T08:38:18;11.90;99.90
59303;DHT22;45074;52.764;6.896;2022-10-19T08:40:44;12.40;99.90
59303;DHT22;45074;52.764;6.896;2022-10-19T08:43:28;12.10;99.90
59303;DHT22;45074;52.764;6.896;2022-10-19T08:46:04;12.30;99.90
59303;DHT22;45074;52.764;6.896;2022-10-19T08:48:35;13.50;99.90
59303;DHT22;45074;52.764;6.896;2022-10-19T08:51:04;12.10;99.90
59303;DHT22;45074;52.764;6.896;2022-10-19T08:56:19;11.40;99.90
59303;DHT22;45074;52.764;6.896;2022-10-19T09:01:50;12.50;99.90
59303;DHT22;45074;52.764;6.896;2022-10-19T09:04:34;12.20;99.90
59303;DHT22;45074;52.764;6.896;2022-10-19T09:12:41;12.60;99.90
59303;DHT22;45074;52.764;6.896;2022-10-19T09:15:16;13.20;99.90
59303;DHT22;45074;52.764;6.896;2022-10-19T09:17:42;13.70;99.90
59303;DHT22;45074;52.764;6.896;2022-10-19T09:20:20;14.40;99.90
59303;DHT22;45074;52.764;6.896;2022-10-19T09:22:53;11.50;99.90
59303;DHT22;45074;52.764;6.896;2022-10-19T09:25:22;12.90;99.90
59303;DHT22;45074;52.764;6.896;2022-10-19T09:28:01;12.80;99.90
59303;DHT22;45074;52.764;6.896;2022-10-19T09:30:28;12.60;99.90
59303;DHT22;45074;52.764;6.896;2022-10-19T09:32:59;11.80;99.90
59303;DHT22;45074;52.764;6.896;2022-10-19T09:35:31;12.70;99.90
59303;DHT22;45074;52.764;6.896;2022-10-19T09:38:00;12.90;99.90
59303;DHT22;45074;52.764;6.896;2022-10-19T09:40:29;13.70;99.90
59303;DHT22;45074;52.764;6.896;2022-10-19T09:42:55;14.20;99.90
59303;DHT22;45074;52.764;6.896;2022-10-19T09:45:31;13.10;99.90
59303;DHT22;45074;52.764;6.896;2022-10-19T09:47:59;12.80;99.90
59303;DHT22;45074;52.764;6.896;2022-10-19T09:50:28;12.80;99.90
59303;DHT22;45074;52.764;6.896;2022-10-19T09:52:57;12.10;99.90
59303;DHT22;45074;52.764;6.896;2022-10-19T09:58:00;13.20;99.90
59303;DHT22;45074;52.764;6.896;2022-10-19T10:00:38;12.70;99.90
59303;DHT22;45074;52.764;6.896;2022-10-19T10:03:05;12.70;99.90
59303;DHT22;45074;52.764;6.896;2022-10-19T10:05:33;14.80;99.90
59303;DHT22;45074;52.764;6.896;2022-10-19T10:07:59;12.60;99.90
59303;DHT22;45074;52.764;6.896;2022-10-19T10:10:41;13.30;99.90
59303;DHT22;45074;52.764;6.896;2022-10-19T10:13:26;13.20;98.20
59303;DHT22;45074;52.764;6.896;2022-10-19T10:15:57;13.60;99.90
59303;DHT22;45074;52.764;6.896;2022-10-19T10:18:25;13.20;99.90
59303;DHT22;45074;52.764;6.896;2022-10-19T10:21:02;11.80;99.90
59303;DHT22;45074;52.764;6.896;2022-10-19T10:23:31;12.30;99.90
59303;DHT22;45074;52.764;6.896;2022-10-19T10:25:59;13.30;99.90
59303;DHT22;45074;52.764;6.896;2022-10-19T10:28:26;12.10;99.90
59303;DHT22;45074;52.764;6.896;2022-10-19T10:30:58;13.80;99.90
59303;DHT22;45074;52.764;6.896;2022-10-19T10:33:26;12.40;99.90
59303;DHT22;45074;52.764;6.896;2022-10-19T10:36:01;13.70;99.90
59303;DHT22;45074;52.764;6.896;2022-10-19T10:38:31;13.50;99.90
59303;DHT22;45074;52.764;6.896;2022-10-19T10:41:11;13.50;99.90
59303;DHT22;45074;52.764;6.896;2022-10-19T10:44:33;13.70;99.90
59303;DHT22;45074;52.764;6.896;2022-10-19T10:46:52;13.60;99.90
59303;DHT22;45074;52.764;6.896;2022-10-19T10:49:28;13.50;97.40
59303;DHT22;45074;52.764;6.896;2022-10-19T10:51:56;13.00;99.90
59303;DHT22;45074;52.764;6.896;2022-10-19T10:54:28;12.70;99.90
59303;DHT22;45074;52.764;6.896;2022-10-19T10:57:02;13.90;99.90
59303;DHT22;45074;52.764;6.896;2022-10-19T11:00:13;13.80;97.50
59303;DHT22;45074;52.764;6.896;2022-10-19T11:11:06;15.10;99.90
59303;DHT22;45074;52.764;6.896;2022-10-19T11:13:41;14.50;99.90
59303;DHT22;45074;52.764;6.896;2022-10-19T11:16:15;15.90;99.90
59303;DHT22;45074;52.764;6.896;2022-10-19T11:18:45;14.30;99.90
59303;DHT22;45074;52.764;6.896;2022-10-19T11:21:36;14.40;98.60
59303;DHT22;45074;52.764;6.896;2022-10-19T11:24:16;15.00;99.90
59303;DHT22;45074;52.764;6.896;2022-10-19T11:26:48;14.50;99.90
59303;DHT22;45074;52.764;6.896;2022-10-19T11:29:23;14.20;99.90
59303;DHT22;45074;52.764;6.896;2022-10-19T11:31:53;12.80;99.90
59303;DHT22;45074;52.764;6.896;2022-10-19T11:37:04;14.00;99.90
59303;DHT22;45074;52.764;6.896;2022-10-19T11:39:59;14.10;96.00
59303;DHT22;45074;52.764;6.896;2022-10-19T11:56:13;15.90;99.90
59303;DHT22;45074;52.764;6.896;2022-10-19T12:14:52;15.40;99.90
59303;DHT22;45074;52.764;6.896;2022-10-19T12:17:22;15.60;93.30
59303;DHT22;45074;52.764;6.896;2022-10-19T12:19:53;16.00;99.90
59303;DHT22;45074;52.764;6.896;2022-10-19T12:22:27;15.30;87.60
59303;DHT22;45074;52.764;6.896;2022-10-19T12:24:53;16.10;99.20
59303;DHT22;45074;52.764;6.896;2022-10-19T12:27:30;16.10;99.70
59303;DHT22;45074;52.764;6.896;2022-10-19T12:30:02;15.70;98.70
59303;DHT22;45074;52.764;6.896;2022-10-19T12:32:33;16.10;99.70
59303;DHT22;45074;52.764;6.896;2022-10-19T12:36:17;17.30;99.80
59303;DHT22;45074;52.764;6.896;2022-10-19T12:38:24;16.40;99.40
59303;DHT22;45074;52.764;6.896;2022-10-19T12:41:21;16.10;90.50
59303;DHT22;45074;52.764;6.896;2022-10-19T12:43:57;15.70;99.90
59303;DHT22;45074;52.764;6.896;2022-10-19T12:46:45;17.10;93.50
59303;DHT22;45074;52.764;6.896;2022-10-19T12:49:33;17.30;98.90
59303;DHT22;45074;52.764;6.896;2022-10-19T12:52:00;17.80;89.20
59303;DHT22;45074;52.764;6.896;2022-10-19T12:54:29;18.00;96.40
59303;DHT22;45074;52.764;6.896;2022-10-19T12:56:57;18.70;90.40
59303;DHT22;45074;52.764;6.896;2022-10-19T12:59:25;18.40;83.60
59303;DHT22;45074;52.764;6.896;2022-10-19T13:01:52;18.70;94.70
59303;DHT22;45074;52.764;6.896;2022-10-19T13:04:21;19.00;93.30
59303;DHT22;45074;52.764;6.896;2022-10-19T13:07:02;18.20;92.80
59303;DHT22;45074;52.764;6.896;2022-10-19T13:09:41;19.10;75.80
59303;DHT22;45074;52.764;6.896;2022-10-19T13:14:53;20.00;91.70
59303;DHT22;45074;52.764;6.896;2022-10-19T13:22:47;19.30;90.60
59303;DHT22;45074;52.764;6.896;2022-10-19T13:27:44;18.70;91.30
59303;DHT22;45074;52.764;6.896;2022-10-19T13:43:22;18.10;91.70
59303;DHT22;45074;52.764;6.896;2022-10-19T13:46:02;18.70;91.50
59303;DHT22;45074;52.764;6.896;2022-10-19T13:48:54;18.60;91.50
59303;DHT22;45074;52.764;6.896;2022-10-19T13:51:47;18.80;91.00
59303;DHT22;45074;52.764;6.896;2022-10-19T13:54:56;19.20;90.80
59303;DHT22;45074;52.764;6.896;2022-10-19T14:00:20;19.40;89.00
59303;DHT22;45074;52.764;6.896;2022-10-19T14:03:01;21.30;87.90
59303;DHT22;45074;52.764;6.896;2022-10-19T14:05:58;20.00;86.10
59303;DHT22;45074;52.764;6.896;2022-10-19T14:11:14;20.20;75.70
59303;DHT22;45074;52.764;6.896;2022-10-19T14:13:40;19.70;84.80
59303;DHT22;45074;52.764;6.896;2022-10-19T14:16:06;20.10;83.00
59303;DHT22;45074;52.764;6.896;2022-10-19T14:18:34;19.10;83.20
59303;DHT22;45074;52.764;6.896;2022-10-19T14:21:06;20.20;70.00
59303;DHT22;45074;52.764;6.896;2022-10-19T14:23:35;20.40;66.00
59303;DHT22;45074;52.764;6.896;2022-10-19T14:28:31;20.10;78.10
59303;DHT22;45074;52.764;6.896;2022-10-19T14:31:04;21.00;76.80
59303;DHT22;45074;52.764;6.896;2022-10-19T14:33:35;21.70;76.60
59303;DHT22;45074;52.764;6.896;2022-10-19T14:36:04;21.10;76.00
59303;DHT22;45074;52.764;6.896;2022-10-19T14:38:36;22.30;76.20
59303;DHT22;45074;52.764;6.896;2022-10-19T14:41:04;21.10;75.10
59303;DHT22;45074;52.764;6.896;2022-10-19T14:43:32;21.00;74.90
59303;DHT22;45074;52.764;6.896;2022-10-19T14:48:47;20.70;77.60
59303;DHT22;45074;52.764;6.896;2022-10-19T14:51:34;19.20;78.10
59303;DHT22;45074;52.764;6.896;2022-10-19T14:56:45;19.70;77.90
59303;DHT22;45074;52.764;6.896;2022-10-19T14:59:26;20.40;78.90
59303;DHT22;45074;52.764;6.896;2022-10-19T15:01:55;21.30;78.80
59303;DHT22;45074;52.764;6.896;2022-10-19T15:04:25;21.30;76.10
59303;DHT22;45074;52.764;6.896;2022-10-19T15:06:52;20.90;58.20
59303;DHT22;45074;52.764;6.896;2022-10-19T15:09:28;20.30;76.50
59303;DHT22;45074;52.764;6.896;2022-10-19T15:12:03;19.20;79.20
59303;DHT22;45074;52.764;6.896;2022-10-19T15:14:31;18.60;84.10
59303;DHT22;45074;52.764;6.896;2022-10-19T15:16:59;17.90;91.20
59303;DHT22;45074;52.764;6.896;2022-10-19T15:19:41;17.80;70.20
59303;DHT22;45074;52.764;6.896;2022-10-19T15:24:59;16.20;95.20
59303;DHT22;45074;52.764;6.896;2022-10-19T15:32:42;15.80;96.50
59303;DHT22;45074;52.764;6.896;2022-10-19T15:35:25;15.50;98.10
59303;DHT22;45074;52.764;6.896;2022-10-19T15:38:03;15.50;98.80
59303;DHT22;45074;52.764;6.896;2022-10-19T15:40:35;15.30;99.20
59303;DHT22;45074;52.764;6.896;2022-10-19T15:43:43;15.40;99.90
59303;DHT22;45074;52.764;6.896;2022-10-19T15:52:14;14.60;88.20
59303;DHT22;45074;52.764;6.896;2022-10-19T16:07:12;14.00;90.30
59303;DHT22;45074;52.764;6.896;2022-10-19T16:31:36;13.00;93.60
59303;DHT22;45074;52.764;6.896;2022-10-19T16:46:13;12.50;95.40
59303;DHT22;45074;52.764;6.896;2022-10-19T16:56:05;12.30;96.40
59303;DHT22;45074;52.764;6.896;2022-10-19T17:03:27;12.10;97.10
59303;DHT22;45074;52.764;6.896;2022-10-19T17:20:31;11.70;98.50
59303;DHT22;45074;52.764;6.896;2022-10-19T17:27:50;11.50;98.70
59303;DHT22;45074;52.764;6.896;2022-10-19T17:44:54;11.20;99.90
59303;DHT22;45074;52.764;6.896;2022-10-19T18:11:42;10.80;99.90
59303;DHT22;45074;52.764;6.896;2022-10-19T18:14:10;10.80;99.90
59303;DHT22;45074;52.764;6.896;2022-10-19T18:16:41;10.80;99.90
59303;DHT22;45074;52.764;6.896;2022-10-19T18:19:10;10.80;99.90
59303;DHT22;45074;52.764;6.896;2022-10-19T18:21:38;10.70;99.90
59303;DHT22;45074;52.764;6.896;2022-10-19T18:24:05;11.40;99.90
59303;DHT22;45074;52.764;6.896;2022-10-19T18:26:32;10.60;99.90
59303;DHT22;45074;52.764;6.896;2022-10-19T18:29:00;10.60;99.90
59303;DHT22;45074;52.764;6.896;2022-10-19T18:31:29;10.50;99.90
59303;DHT22;45074;52.764;6.896;2022-10-19T18:34:01;10.50;99.90
59303;DHT22;45074;52.764;6.896;2022-10-19T18:38:56;10.50;99.90
59303;DHT22;45074;52.764;6.896;2022-10-19T18:44:11;10.40;99.90
59303;DHT22;45074;52.764;6.896;2022-10-19T18:49:04;10.40;99.90
59303;DHT22;45074;52.764;6.896;2022-10-19T18:56:23;10.30;99.90
59303;DHT22;45074;52.764;6.896;2022-10-19T18:58:52;10.20;99.90
59303;DHT22;45074;52.764;6.896;2022-10-19T19:01:20;10.20;99.90
59303;DHT22;45074;52.764;6.896;2022-10-19T19:06:34;10.10;99.90
59303;DHT22;45074;52.764;6.896;2022-10-19T19:09:04;10.10;99.90
59303;DHT22;45074;52.764;6.896;2022-10-19T19:11:32;10.10;99.90
59303;DHT22;45074;52.764;6.896;2022-10-19T19:14:01;10.10;99.90
59303;DHT22;45074;52.764;6.896;2022-10-19T19:16:29;10.00;99.90
59303;DHT22;45074;52.764;6.896;2022-10-19T19:21:24;10.00;99.90
59303;DHT22;45074;52.764;6.896;2022-10-19T19:23:51;10.00;99.90
59303;DHT22;45074;52.764;6.896;2022-10-19T19:26:19;10.00;99.90
59303;DHT22;45074;52.764;6.896;2022-10-19T19:36:07;9.90;99.90
59303;DHT22;45074;52.764;6.896;2022-10-19T19:38:33;9.80;99.90
59303;DHT22;45074;52.764;6.896;2022-10-19T19:41:03;9.80;99.90
59303;DHT22;45074;52.764;6.896;2022-10-19T19:43:30;9.70;99.90
59303;DHT22;45074;52.764;6.896;2022-10-19T19:45:58;9.70;99.90
59303;DHT22;45074;52.764;6.896;2022-10-19T19:55:45;9.60;99.90
59303;DHT22;45074;52.764;6.896;2022-10-19T20:15:17;10.30;99.90
59303;DHT22;45074;52.764;6.896;2022-10-19T20:17:43;9.20;99.90
59303;DHT22;45074;52.764;6.896;2022-10-19T20:20:11;9.30;99.90
59303;DHT22;45074;52.764;6.896;2022-10-19T20:22:37;9.30;99.90
59303;DHT22;45074;52.764;6.896;2022-10-19T20:25:03;9.10;99.90
59303;DHT22;45074;52.764;6.896;2022-10-19T20:37:18;9.10;99.90
59303;DHT22;45074;52.764;6.896;2022-10-19T20:39:45;9.10;99.90
59303;DHT22;45074;52.764;6.896;2022-10-19T20:59:15;8.90;99.90
59303;DHT22;45074;52.764;6.896;2022-10-19T21:01:42;8.90;99.90
59303;DHT22;45074;52.764;6.896;2022-10-19T21:04:10;8.90;99.90
59303;DHT22;45074;52.764;6.896;2022-10-19T21:06:39;8.90;99.90
59303;DHT22;45074;52.764;6.896;2022-10-19T21:11:33;8.90;99.90
59303;DHT22;45074;52.764;6.896;2022-10-19T21:14:07;8.90;99.90
59303;DHT22;45074;52.764;6.896;2022-10-19T21:19:01;8.80;99.90
59303;DHT22;45074;52.764;6.896;2022-10-19T21:21:36;8.80;99.90
59303;DHT22;45074;52.764;6.896;2022-10-19T21:24:05;8.90;99.90
59303;DHT22;45074;52.764;6.896;2022-10-19T21:26:32;8.90;99.90
59303;DHT22;45074;52.764;6.896;2022-10-19T21:31:25;8.80;99.90
59303;DHT22;45074;52.764;6.896;2022-10-19T21:33:52;8.80;99.90
59303;DHT22;45074;52.764;6.896;2022-10-19T21:36:18;8.80;99.90
59303;DHT22;45074;52.764;6.896;2022-10-19T21:41:13;8.80;99.90
59303;DHT22;45074;52.764;6.896;2022-10-19T21:46:07;8.70;99.90
59303;DHT22;45074;52.764;6.896;2022-10-19T21:55:52;8.70;99.90
59303;DHT22;45074;52.764;6.896;2022-10-19T21:58:19;8.70;99.90
59303;DHT22;45074;52.764;6.896;2022-10-19T22:03:17;8.70;99.90
59303;DHT22;45074;52.764;6.896;2022-10-19T22:05:50;8.70;99.90
59303;DHT22;45074;52.764;6.896;2022-10-19T22:15:38;8.60;99.90
59303;DHT22;45074;52.764;6.896;2022-10-19T22:37:33;8.40;99.90
59303;DHT22;45074;52.764;6.896;2022-10-19T22:42:27;8.30;99.90
59303;DHT22;45074;52.764;6.896;2022-10-19T22:57:03;8.30;99.90
59303;DHT22;45074;52.764;6.896;2022-10-19T23:26:17;8.00;99.90
59303;DHT22;45074;52.764;6.896;2022-10-19T23:28:45;8.00;99.90
59303;DHT22;45074;52.764;6.896;2022-10-19T23:31:17;7.90;99.90